ROYN

Details ICAO ROYN (OGN)
Name YONAGUNI
Region Japan
Timezone Unknown (UTC+0.0)
Plans Departing 13
Arriving 7
Stats Elevation 70 ft / 21 m (AMSL)
Location 24.466943° 122.977875°
Runways 1
Magnetic Variation 4.527° W
Sunrise 2018-05-21 21:03:25 UTC / 2018-05-21 21:03:25 Local
Sunset 2018-05-22 10:28:53 UTC / 2018-05-22 10:28:53 Local
Advertisement - Login to hide

Runways

ID Width Length Bearing (true) Bearing (mag) Surface Threshold Offset Overrun Length
08 150 ft / 46 m 4,917 ft / 1,499 m 75.20° 79.73° Asphalt 0 ft / 0 m 200 ft / 61 m
26 150 ft / 46 m 4,917 ft / 1,499 m 255.20° 259.73° Asphalt 0 ft / 0 m 200 ft / 61 m

Map

Weather


0- 5 10 15 20 25 30 35+ Temperature / ° C

Clouds and Precipitation
Forecast for 2018-05-22 12:00 UTC. Updated 2 hours ago

Ground ~20,000 ft ~40,000 ft Winds

METAR

ROYN 221000Z AUTO 16004KT 9999 NCD 28/24 Q1009

TAF

Not found

Frequencies

Tower 118.50 MHz REMOTE
Warning: Do not use this data for real-world aviation or navigation. No guarantee of current accuracy is given.